Pleasant Hill, OR (97455)

4:47 PM PST on February 01, 2015 (GMT -0800)
Ridgeway Road | Change Station
CLOSE
Current Station
Personal Weather Station
Location: Pleasant Hill, OR
Elevation: 525 ft
Nearby Weather Stations

Elev 525 ft 43.99 °N, 122.93 °W | Updated 10 minutes ago

Overcast
Overcast
48.9 °F
Feels Like 49 °F
N
0.0
Wind Variable Wind from ENE

Today
High -- | Low -- °F
--% Chance of Precip.
Yesterday
High -- | Low -- °F
Precip. -- in
7:29 AM 5:21 PM
Waxing Gibbous, 97% visible
Pressure 30.16 in
Visibility 10.0 miles
Clouds Few 1200 ft
Scattered Clouds 1900 ft
Overcast 2700 ft
Windchill 49 °F
Dew Point 31 °F
Humidity 50%
Rainfall 0.09 in
Snow Depth Not available.
UV 0 out of 12
Pollen 4.20 out of 12
Air Quality Not available.
Flu Activity Not available.
METAR KEUG 012354Z 15005KT 10SM FEW012 SCT019 OVC027 11/09 A3015 RMK AO2 SLP211 60004 T01110089 10111 20061 53001

More Conditions Fewer Conditions

Pressure 30.16 in
Visibility 10.0 miles
Clouds Few 1200 ft
Scattered Clouds 1900 ft
Overcast 2700 ft
Windchill 49 °F
Dew Point 31 °F
Humidity 50%
Rainfall 0.09 in
Snow Depth Not available.
UV 0 out of 12
Pollen 4.20 out of 12
Air Quality Not available.
Flu Activity Not available.
METAR KEUG 012354Z 15005KT 10SM FEW012 SCT019 OVC027 11/09 A3015 RMK AO2 SLP211 60004 T01110089 10111 20061 53001

More Conditions Fewer Conditions

10-Day Weather Forecast

Almanac

Astronomy

Feb. 01, 2015 Rise Set
Actual Time
Civil Twilight
Nautical Twilight
Astronomical Twilight
Moon
Length of Visible Light
Length of Day
Tomorrow will be .
, % of the Moon is Illuminated

Today's Extremes

State Highs State Lows

Community

WunderPhotos

Upload Photos

1,792,637 photos uploaded!

WunderBlogs® & News

Nearby

Air Quality

  Air Quality AQ Index Pollutant
Not available.

Snow Depth

Station Depth Elevation

Earthquake Activity

City Distance Mag. Time & Date
Minimum magnitude displayed is 2.5.

Coastal Water Temperatures

Place Temperature

Nearby Weather Stations